sensor_id;sensor_type;location;lat;lon;timestamp;P1;durP1;ratioP1;P2;durP2;ratioP2
22963;SDS011;11648;49.306;6.934;2023-05-07T00:01:22;2.83;;;1.63;;
22963;SDS011;11648;49.306;6.934;2023-05-07T00:03:48;4.00;;;1.80;;
22963;SDS011;11648;49.306;6.934;2023-05-07T00:06:16;2.10;;;1.30;;
22963;SDS011;11648;49.306;6.934;2023-05-07T00:08:42;4.53;;;1.60;;
22963;SDS011;11648;49.306;6.934;2023-05-07T00:11:09;3.40;;;1.37;;
22963;SDS011;11648;49.306;6.934;2023-05-07T00:13:36;3.10;;;1.37;;
22963;SDS011;11648;49.306;6.934;2023-05-07T00:16:03;3.13;;;1.47;;
22963;SDS011;11648;49.306;6.934;2023-05-07T00:18:30;2.73;;;1.63;;
22963;SDS011;11648;49.306;6.934;2023-05-07T00:20:56;3.67;;;1.77;;
22963;SDS011;11648;49.306;6.934;2023-05-07T00:23:23;2.90;;;1.50;;
22963;SDS011;11648;49.306;6.934;2023-05-07T00:25:50;4.37;;;1.50;;
22963;SDS011;11648;49.306;6.934;2023-05-07T00:28:17;3.37;;;1.63;;
22963;SDS011;11648;49.306;6.934;2023-05-07T00:30:43;2.80;;;1.67;;
22963;SDS011;11648;49.306;6.934;2023-05-07T00:33:10;5.53;;;1.67;;
22963;SDS011;11648;49.306;6.934;2023-05-07T00:35:37;3.43;;;1.47;;
22963;SDS011;11648;49.306;6.934;2023-05-07T00:38:03;2.40;;;1.40;;
22963;SDS011;11648;49.306;6.934;2023-05-07T00:40:30;1.90;;;1.40;;
22963;SDS011;11648;49.306;6.934;2023-05-07T00:42:57;3.27;;;1.60;;
22963;SDS011;11648;49.306;6.934;2023-05-07T00:45:26;3.53;;;1.77;;
22963;SDS011;11648;49.306;6.934;2023-05-07T00:47:55;3.70;;;1.60;;
22963;SDS011;11648;49.306;6.934;2023-05-07T00:50:23;3.27;;;1.50;;
22963;SDS011;11648;49.306;6.934;2023-05-07T00:52:50;2.87;;;1.37;;
22963;SDS011;11648;49.306;6.934;2023-05-07T00:55:17;1.97;;;1.27;;
22963;SDS011;11648;49.306;6.934;2023-05-07T00:57:47;3.80;;;1.73;;
22963;SDS011;11648;49.306;6.934;2023-05-07T01:00:15;3.70;;;1.57;;
22963;SDS011;11648;49.306;6.934;2023-05-07T01:02:42;3.40;;;1.50;;
22963;SDS011;11648;49.306;6.934;2023-05-07T01:05:12;4.90;;;1.40;;
22963;SDS011;11648;49.306;6.934;2023-05-07T01:07:42;4.70;;;1.50;;
22963;SDS011;11648;49.306;6.934;2023-05-07T01:10:09;2.43;;;1.50;;
22963;SDS011;11648;49.306;6.934;2023-05-07T01:12:38;2.30;;;1.50;;
22963;SDS011;11648;49.306;6.934;2023-05-07T01:15:07;3.93;;;1.43;;
22963;SDS011;11648;49.306;6.934;2023-05-07T01:17:36;4.73;;;1.60;;
22963;SDS011;11648;49.306;6.934;2023-05-07T01:20:07;4.47;;;1.40;;
22963;SDS011;11648;49.306;6.934;2023-05-07T01:22:35;3.43;;;1.70;;
22963;SDS011;11648;49.306;6.934;2023-05-07T01:25:05;2.50;;;1.30;;
22963;SDS011;11648;49.306;6.934;2023-05-07T01:27:35;4.93;;;1.60;;
22963;SDS011;11648;49.306;6.934;2023-05-07T01:30:05;2.63;;;1.30;;
22963;SDS011;11648;49.306;6.934;2023-05-07T01:35:05;3.80;;;1.60;;
22963;SDS011;11648;49.306;6.934;2023-05-07T01:37:33;3.70;;;1.53;;
22963;SDS011;11648;49.306;6.934;2023-05-07T01:40:00;2.73;;;1.50;;
22963;SDS011;11648;49.306;6.934;2023-05-07T01:42:29;4.73;;;1.67;;
22963;SDS011;11648;49.306;6.934;2023-05-07T01:44:56;2.77;;;1.50;;
22963;SDS011;11648;49.306;6.934;2023-05-07T01:47:22;2.97;;;1.77;;
22963;SDS011;11648;49.306;6.934;2023-05-07T01:49:50;3.53;;;1.77;;
22963;SDS011;11648;49.306;6.934;2023-05-07T01:52:17;3.03;;;1.63;;
22963;SDS011;11648;49.306;6.934;2023-05-07T01:54:44;2.47;;;1.40;;
22963;SDS011;11648;49.306;6.934;2023-05-07T01:57:14;2.97;;;1.60;;
22963;SDS011;11648;49.306;6.934;2023-05-07T01:59:41;3.70;;;1.63;;
22963;SDS011;11648;49.306;6.934;2023-05-07T02:02:07;3.50;;;1.70;;
22963;SDS011;11648;49.306;6.934;2023-05-07T02:04:36;3.60;;;1.70;;
22963;SDS011;11648;49.306;6.934;2023-05-07T02:07:04;4.10;;;1.63;;
22963;SDS011;11648;49.306;6.934;2023-05-07T02:09:30;5.93;;;1.60;;
22963;SDS011;11648;49.306;6.934;2023-05-07T02:11:57;3.33;;;1.60;;
22963;SDS011;11648;49.306;6.934;2023-05-07T02:14:24;3.47;;;1.70;;
22963;SDS011;11648;49.306;6.934;2023-05-07T02:16:52;5.37;;;1.67;;
22963;SDS011;11648;49.306;6.934;2023-05-07T02:19:19;3.67;;;1.73;;
22963;SDS011;11648;49.306;6.934;2023-05-07T02:21:47;4.43;;;1.80;;
22963;SDS011;11648;49.306;6.934;2023-05-07T02:24:14;2.60;;;1.50;;
22963;SDS011;11648;49.306;6.934;2023-05-07T02:26:41;2.97;;;1.60;;
22963;SDS011;11648;49.306;6.934;2023-05-07T02:29:08;5.37;;;1.97;;
22963;SDS011;11648;49.306;6.934;2023-05-07T02:31:37;5.03;;;2.10;;
22963;SDS011;11648;49.306;6.934;2023-05-07T02:34:03;3.37;;;1.90;;
22963;SDS011;11648;49.306;6.934;2023-05-07T02:36:30;3.13;;;1.90;;
22963;SDS011;11648;49.306;6.934;2023-05-07T02:39:05;3.97;;;2.03;;
22963;SDS011;11648;49.306;6.934;2023-05-07T02:41:31;3.73;;;1.93;;
22963;SDS011;11648;49.306;6.934;2023-05-07T02:43:58;5.57;;;2.03;;
22963;SDS011;11648;49.306;6.934;2023-05-07T02:46:25;2.93;;;1.70;;
22963;SDS011;11648;49.306;6.934;2023-05-07T02:48:59;3.90;;;2.20;;
22963;SDS011;11648;49.306;6.934;2023-05-07T02:51:26;3.73;;;2.07;;
22963;SDS011;11648;49.306;6.934;2023-05-07T02:53:55;2.50;;;2.03;;
22963;SDS011;11648;49.306;6.934;2023-05-07T02:56:22;2.63;;;1.77;;
22963;SDS011;11648;49.306;6.934;2023-05-07T02:58:49;3.60;;;2.10;;
22963;SDS011;11648;49.306;6.934;2023-05-07T03:01:17;4.30;;;2.03;;
22963;SDS011;11648;49.306;6.934;2023-05-07T03:03:50;4.87;;;2.30;;
22963;SDS011;11648;49.306;6.934;2023-05-07T03:06:17;3.50;;;2.10;;
22963;SDS011;11648;49.306;6.934;2023-05-07T03:08:44;4.27;;;2.10;;
22963;SDS011;11648;49.306;6.934;2023-05-07T03:11:10;6.32;;;2.90;;
22963;SDS011;11648;49.306;6.934;2023-05-07T03:13:37;4.00;;;2.67;;
22963;SDS011;11648;49.306;6.934;2023-05-07T03:16:04;3.63;;;2.13;;
22963;SDS011;11648;49.306;6.934;2023-05-07T03:18:31;4.40;;;2.23;;
22963;SDS011;11648;49.306;6.934;2023-05-07T03:20:58;3.60;;;2.27;;
22963;SDS011;11648;49.306;6.934;2023-05-07T03:23:25;3.67;;;2.20;;
22963;SDS011;11648;49.306;6.934;2023-05-07T03:25:51;3.40;;;2.07;;
22963;SDS011;11648;49.306;6.934;2023-05-07T03:28:18;3.77;;;1.97;;
22963;SDS011;11648;49.306;6.934;2023-05-07T03:30:53;3.80;;;2.20;;
22963;SDS011;11648;49.306;6.934;2023-05-07T03:33:20;3.33;;;2.20;;
22963;SDS011;11648;49.306;6.934;2023-05-07T03:35:47;3.47;;;2.10;;
22963;SDS011;11648;49.306;6.934;2023-05-07T03:38:19;3.13;;;2.00;;
22963;SDS011;11648;49.306;6.934;2023-05-07T03:40:46;2.73;;;1.80;;
22963;SDS011;11648;49.306;6.934;2023-05-07T03:43:12;4.87;;;1.83;;
22963;SDS011;11648;49.306;6.934;2023-05-07T03:45:44;3.30;;;1.90;;
22963;SDS011;11648;49.306;6.934;2023-05-07T03:48:15;4.70;;;2.40;;
22963;SDS011;11648;49.306;6.934;2023-05-07T03:50:42;3.53;;;1.97;;
22963;SDS011;11648;49.306;6.934;2023-05-07T03:53:09;8.53;;;3.40;;
22963;SDS011;11648;49.306;6.934;2023-05-07T03:55:38;4.07;;;3.00;;
22963;SDS011;11648;49.306;6.934;2023-05-07T03:58:05;3.93;;;2.70;;
22963;SDS011;11648;49.306;6.934;2023-05-07T04:00:32;3.20;;;2.30;;
22963;SDS011;11648;49.306;6.934;2023-05-07T04:03:09;3.60;;;2.33;;
22963;SDS011;11648;49.306;6.934;2023-05-07T04:05:36;4.73;;;2.23;;
22963;SDS011;11648;49.306;6.934;2023-05-07T04:08:02;5.33;;;2.20;;
22963;SDS011;11648;49.306;6.934;2023-05-07T04:10:36;4.33;;;2.37;;
22963;SDS011;11648;49.306;6.934;2023-05-07T04:13:07;3.83;;;2.17;;
22963;SDS011;11648;49.306;6.934;2023-05-07T04:15:35;4.07;;;2.20;;
22963;SDS011;11648;49.306;6.934;2023-05-07T04:18:04;5.10;;;2.50;;
22963;SDS011;11648;49.306;6.934;2023-05-07T04:20:33;6.67;;;2.23;;
22963;SDS011;11648;49.306;6.934;2023-05-07T04:23:02;3.63;;;1.90;;
22963;SDS011;11648;49.306;6.934;2023-05-07T04:25:29;3.83;;;1.90;;
22963;SDS011;11648;49.306;6.934;2023-05-07T04:28:06;3.50;;;2.17;;
22963;SDS011;11648;49.306;6.934;2023-05-07T04:30:33;3.60;;;2.43;;
22963;SDS011;11648;49.306;6.934;2023-05-07T04:33:02;4.30;;;2.40;;
22963;SDS011;11648;49.306;6.934;2023-05-07T04:35:30;4.73;;;2.60;;
22963;SDS011;11648;49.306;6.934;2023-05-07T04:37:58;3.93;;;2.70;;
22963;SDS011;11648;49.306;6.934;2023-05-07T04:40:24;4.27;;;2.50;;
22963;SDS011;11648;49.306;6.934;2023-05-07T04:42:51;4.50;;;2.33;;
22963;SDS011;11648;49.306;6.934;2023-05-07T04:45:20;4.67;;;2.53;;
22963;SDS011;11648;49.306;6.934;2023-05-07T04:47:47;4.70;;;1.93;;
22963;SDS011;11648;49.306;6.934;2023-05-07T04:50:14;3.70;;;2.20;;
22963;SDS011;11648;49.306;6.934;2023-05-07T04:52:42;3.13;;;2.10;;
22963;SDS011;11648;49.306;6.934;2023-05-07T04:55:08;3.77;;;2.00;;
22963;SDS011;11648;49.306;6.934;2023-05-07T04:57:38;3.40;;;1.97;;
22963;SDS011;11648;49.306;6.934;2023-05-07T05:00:08;3.00;;;2.20;;
22963;SDS011;11648;49.306;6.934;2023-05-07T05:02:37;5.27;;;2.20;;
22963;SDS011;11648;49.306;6.934;2023-05-07T05:05:04;6.73;;;2.10;;
22963;SDS011;11648;49.306;6.934;2023-05-07T05:07:31;3.87;;;2.07;;
22963;SDS011;11648;49.306;6.934;2023-05-07T05:09:59;3.77;;;2.30;;
22963;SDS011;11648;49.306;6.934;2023-05-07T05:12:26;4.13;;;2.40;;
22963;SDS011;11648;49.306;6.934;2023-05-07T05:14:53;3.50;;;2.03;;
22963;SDS011;11648;49.306;6.934;2023-05-07T05:17:20;4.43;;;2.03;;
22963;SDS011;11648;49.306;6.934;2023-05-07T05:19:47;3.70;;;2.03;;
22963;SDS011;11648;49.306;6.934;2023-05-07T05:22:14;4.47;;;2.30;;
22963;SDS011;11648;49.306;6.934;2023-05-07T05:24:40;5.23;;;2.10;;
22963;SDS011;11648;49.306;6.934;2023-05-07T05:27:07;3.70;;;2.27;;
22963;SDS011;11648;49.306;6.934;2023-05-07T05:29:34;3.93;;;2.20;;
22963;SDS011;11648;49.306;6.934;2023-05-07T05:32:01;4.70;;;2.20;;
22963;SDS011;11648;49.306;6.934;2023-05-07T05:34:29;4.07;;;2.07;;
22963;SDS011;11648;49.306;6.934;2023-05-07T05:36:57;4.57;;;2.20;;
22963;SDS011;11648;49.306;6.934;2023-05-07T05:39:25;3.10;;;2.27;;
22963;SDS011;11648;49.306;6.934;2023-05-07T05:41:52;3.70;;;2.40;;
22963;SDS011;11648;49.306;6.934;2023-05-07T05:44:19;2.90;;;1.80;;
22963;SDS011;11648;49.306;6.934;2023-05-07T05:46:46;4.07;;;2.40;;
22963;SDS011;11648;49.306;6.934;2023-05-07T05:49:13;3.60;;;2.13;;
22963;SDS011;11648;49.306;6.934;2023-05-07T05:51:39;3.40;;;1.90;;
22963;SDS011;11648;49.306;6.934;2023-05-07T05:54:06;4.37;;;2.07;;
22963;SDS011;11648;49.306;6.934;2023-05-07T05:56:33;3.40;;;2.03;;
22963;SDS011;11648;49.306;6.934;2023-05-07T05:59:00;3.10;;;1.90;;
22963;SDS011;11648;49.306;6.934;2023-05-07T06:01:28;3.43;;;1.90;;
22963;SDS011;11648;49.306;6.934;2023-05-07T06:03:57;4.13;;;2.20;;
22963;SDS011;11648;49.306;6.934;2023-05-07T06:06:23;3.27;;;1.80;;
22963;SDS011;11648;49.306;6.934;2023-05-07T06:08:51;2.83;;;1.83;;
22963;SDS011;11648;49.306;6.934;2023-05-07T06:11:23;4.27;;;2.10;;
22963;SDS011;11648;49.306;6.934;2023-05-07T06:13:50;3.87;;;2.00;;
22963;SDS011;11648;49.306;6.934;2023-05-07T06:16:17;3.23;;;1.87;;
22963;SDS011;11648;49.306;6.934;2023-05-07T06:18:44;3.40;;;2.00;;
22963;SDS011;11648;49.306;6.934;2023-05-07T06:21:14;2.50;;;1.50;;
22963;SDS011;11648;49.306;6.934;2023-05-07T06:23:41;3.53;;;1.80;;
22963;SDS011;11648;49.306;6.934;2023-05-07T06:26:08;3.67;;;2.17;;
22963;SDS011;11648;49.306;6.934;2023-05-07T06:28:39;4.73;;;2.07;;
22963;SDS011;11648;49.306;6.934;2023-05-07T06:31:16;3.77;;;1.63;;
22963;SDS011;11648;49.306;6.934;2023-05-07T06:33:54;3.63;;;2.10;;
22963;SDS011;11648;49.306;6.934;2023-05-07T06:36:25;3.17;;;1.77;;
22963;SDS011;11648;49.306;6.934;2023-05-07T06:38:55;3.93;;;2.00;;
22963;SDS011;11648;49.306;6.934;2023-05-07T06:41:22;3.27;;;2.10;;
22963;SDS011;11648;49.306;6.934;2023-05-07T06:43:49;3.80;;;2.60;;
22963;SDS011;11648;49.306;6.934;2023-05-07T06:46:34;3.17;;;1.93;;
22963;SDS011;11648;49.306;6.934;2023-05-07T06:49:02;4.37;;;1.90;;
22963;SDS011;11648;49.306;6.934;2023-05-07T06:51:30;3.83;;;1.97;;
22963;SDS011;11648;49.306;6.934;2023-05-07T06:54:01;2.87;;;1.70;;
22963;SDS011;11648;49.306;6.934;2023-05-07T06:56:28;3.53;;;2.30;;
22963;SDS011;11648;49.306;6.934;2023-05-07T06:58:55;3.20;;;1.60;;
22963;SDS011;11648;49.306;6.934;2023-05-07T07:01:22;5.20;;;1.93;;
22963;SDS011;11648;49.306;6.934;2023-05-07T07:03:49;3.73;;;1.90;;
22963;SDS011;11648;49.306;6.934;2023-05-07T07:06:19;3.77;;;2.03;;
22963;SDS011;11648;49.306;6.934;2023-05-07T07:08:46;7.07;;;2.03;;
22963;SDS011;11648;49.306;6.934;2023-05-07T07:11:15;4.60;;;2.00;;
22963;SDS011;11648;49.306;6.934;2023-05-07T07:13:42;3.87;;;1.87;;
22963;SDS011;11648;49.306;6.934;2023-05-07T07:16:09;3.80;;;2.00;;
22963;SDS011;11648;49.306;6.934;2023-05-07T07:18:37;3.17;;;2.07;;
22963;SDS011;11648;49.306;6.934;2023-05-07T07:21:04;3.57;;;2.07;;
22963;SDS011;11648;49.306;6.934;2023-05-07T07:23:30;4.53;;;1.80;;
22963;SDS011;11648;49.306;6.934;2023-05-07T07:25:58;3.80;;;2.30;;
22963;SDS011;11648;49.306;6.934;2023-05-07T07:28:26;3.73;;;2.10;;
22963;SDS011;11648;49.306;6.934;2023-05-07T07:30:52;4.10;;;2.00;;
22963;SDS011;11648;49.306;6.934;2023-05-07T07:33:19;3.53;;;1.70;;
22963;SDS011;11648;49.306;6.934;2023-05-07T07:35:46;3.93;;;1.90;;
22963;SDS011;11648;49.306;6.934;2023-05-07T07:38:12;3.97;;;1.90;;
22963;SDS011;11648;49.306;6.934;2023-05-07T07:40:40;3.47;;;1.87;;
22963;SDS011;11648;49.306;6.934;2023-05-07T07:43:07;3.90;;;2.07;;
22963;SDS011;11648;49.306;6.934;2023-05-07T07:45:34;2.93;;;1.63;;
22963;SDS011;11648;49.306;6.934;2023-05-07T07:48:01;3.60;;;1.80;;
22963;SDS011;11648;49.306;6.934;2023-05-07T07:50:31;3.30;;;1.80;;
22963;SDS011;11648;49.306;6.934;2023-05-07T07:53:11;2.77;;;1.80;;
22963;SDS011;11648;49.306;6.934;2023-05-07T07:55:38;3.87;;;2.10;;
22963;SDS011;11648;49.306;6.934;2023-05-07T07:58:07;3.50;;;1.87;;
22963;SDS011;11648;49.306;6.934;2023-05-07T08:00:34;3.70;;;1.90;;
22963;SDS011;11648;49.306;6.934;2023-05-07T08:03:01;3.60;;;1.83;;
22963;SDS011;11648;49.306;6.934;2023-05-07T08:05:33;4.30;;;2.07;;
22963;SDS011;11648;49.306;6.934;2023-05-07T08:08:01;4.07;;;2.10;;
22963;SDS011;11648;49.306;6.934;2023-05-07T08:10:31;3.37;;;1.97;;
22963;SDS011;11648;49.306;6.934;2023-05-07T08:13:06;3.60;;;1.87;;
22963;SDS011;11648;49.306;6.934;2023-05-07T08:15:35;3.70;;;1.60;;
22963;SDS011;11648;49.306;6.934;2023-05-07T08:18:02;6.27;;;2.50;;
22963;SDS011;11648;49.306;6.934;2023-05-07T08:20:29;3.23;;;1.90;;
22963;SDS011;11648;49.306;6.934;2023-05-07T08:22:57;4.33;;;2.10;;
22963;SDS011;11648;49.306;6.934;2023-05-07T08:25:25;2.67;;;1.40;;
22963;SDS011;11648;49.306;6.934;2023-05-07T08:27:52;4.47;;;2.00;;
22963;SDS011;11648;49.306;6.934;2023-05-07T08:30:19;3.27;;;1.50;;
22963;SDS011;11648;49.306;6.934;2023-05-07T08:32:45;3.93;;;1.57;;
22963;SDS011;11648;49.306;6.934;2023-05-07T08:35:12;3.23;;;1.60;;
22963;SDS011;11648;49.306;6.934;2023-05-07T08:37:39;4.70;;;1.70;;
22963;SDS011;11648;49.306;6.934;2023-05-07T08:40:06;3.20;;;1.63;;
22963;SDS011;11648;49.306;6.934;2023-05-07T08:42:38;3.53;;;1.50;;
22963;SDS011;11648;49.306;6.934;2023-05-07T08:45:09;4.77;;;1.60;;
22963;SDS011;11648;49.306;6.934;2023-05-07T08:47:44;3.20;;;1.30;;
22963;SDS011;11648;49.306;6.934;2023-05-07T08:50:16;3.10;;;1.60;;
22963;SDS011;11648;49.306;6.934;2023-05-07T08:52:43;5.10;;;3.43;;
22963;SDS011;11648;49.306;6.934;2023-05-07T08:55:11;3.30;;;2.00;;
22963;SDS011;11648;49.306;6.934;2023-05-07T08:57:39;3.50;;;1.53;;
22963;SDS011;11648;49.306;6.934;2023-05-07T09:00:07;2.93;;;1.60;;
22963;SDS011;11648;49.306;6.934;2023-05-07T09:02:37;2.17;;;1.37;;
22963;SDS011;11648;49.306;6.934;2023-05-07T09:05:05;3.50;;;1.67;;
22963;SDS011;11648;49.306;6.934;2023-05-07T09:07:33;2.40;;;1.30;;
22963;SDS011;11648;49.306;6.934;2023-05-07T09:10:02;3.33;;;1.33;;
22963;SDS011;11648;49.306;6.934;2023-05-07T09:12:31;3.07;;;1.53;;
22963;SDS011;11648;49.306;6.934;2023-05-07T09:14:59;2.80;;;1.47;;
22963;SDS011;11648;49.306;6.934;2023-05-07T09:17:27;3.63;;;1.30;;
22963;SDS011;11648;49.306;6.934;2023-05-07T09:19:55;2.97;;;1.42;;
22963;SDS011;11648;49.306;6.934;2023-05-07T09:22:21;2.45;;;1.40;;
22963;SDS011;11648;49.306;6.934;2023-05-07T09:24:59;2.13;;;1.13;;
22963;SDS011;11648;49.306;6.934;2023-05-07T09:27:27;2.80;;;1.30;;
22963;SDS011;11648;49.306;6.934;2023-05-07T09:29:55;3.72;;;1.27;;
22963;SDS011;11648;49.306;6.934;2023-05-07T09:32:22;3.17;;;1.40;;
22963;SDS011;11648;49.306;6.934;2023-05-07T09:34:49;2.00;;;1.10;;
22963;SDS011;11648;49.306;6.934;2023-05-07T09:37:19;3.35;;;1.30;;
22963;SDS011;11648;49.306;6.934;2023-05-07T09:39:47;3.00;;;1.40;;
22963;SDS011;11648;49.306;6.934;2023-05-07T09:42:23;3.42;;;2.00;;
22963;SDS011;11648;49.306;6.934;2023-05-07T09:44:52;2.30;;;1.35;;
22963;SDS011;11648;49.306;6.934;2023-05-07T09:47:23;2.45;;;1.20;;
22963;SDS011;11648;49.306;6.934;2023-05-07T09:49:55;2.45;;;1.30;;
22963;SDS011;11648;49.306;6.934;2023-05-07T09:52:24;2.58;;;1.50;;
22963;SDS011;11648;49.306;6.934;2023-05-07T09:54:54;1.80;;;1.30;;
22963;SDS011;11648;49.306;6.934;2023-05-07T09:57:27;3.15;;;1.30;;
22963;SDS011;11648;49.306;6.934;2023-05-07T09:59:59;2.88;;;1.33;;
22963;SDS011;11648;49.306;6.934;2023-05-07T10:02:35;3.25;;;1.50;;
22963;SDS011;11648;49.306;6.934;2023-05-07T10:05:03;2.15;;;1.45;;
22963;SDS011;11648;49.306;6.934;2023-05-07T10:07:33;2.70;;;1.58;;
22963;SDS011;11648;49.306;6.934;2023-05-07T10:10:05;3.30;;;1.50;;
22963;SDS011;11648;49.306;6.934;2023-05-07T10:12:37;2.35;;;1.40;;
22963;SDS011;11648;49.306;6.934;2023-05-07T10:15:11;3.55;;;1.40;;
22963;SDS011;11648;49.306;6.934;2023-05-07T10:17:41;2.70;;;1.30;;
22963;SDS011;11648;49.306;6.934;2023-05-07T10:20:10;3.22;;;2.30;;
22963;SDS011;11648;49.306;6.934;2023-05-07T10:22:43;4.22;;;1.80;;
22963;SDS011;11648;49.306;6.934;2023-05-07T10:25:25;2.00;;;1.38;;
22963;SDS011;11648;49.306;6.934;2023-05-07T10:28:04;2.28;;;1.13;;
22963;SDS011;11648;49.306;6.934;2023-05-07T10:33:09;2.63;;;1.85;;
22963;SDS011;11648;49.306;6.934;2023-05-07T10:35:42;3.22;;;1.80;;
22963;SDS011;11648;49.306;6.934;2023-05-07T10:38:10;3.08;;;1.70;;
22963;SDS011;11648;49.306;6.934;2023-05-07T10:40:40;3.25;;;1.48;;
22963;SDS011;11648;49.306;6.934;2023-05-07T10:43:07;2.80;;;1.23;;
22963;SDS011;11648;49.306;6.934;2023-05-07T10:51:37;3.15;;;2.00;;
22963;SDS011;11648;49.306;6.934;2023-05-07T10:54:27;3.25;;;1.35;;
22963;SDS011;11648;49.306;6.934;2023-05-07T11:03:06;2.35;;;1.40;;
22963;SDS011;11648;49.306;6.934;2023-05-07T11:05:46;3.35;;;1.52;;
22963;SDS011;11648;49.306;6.934;2023-05-07T11:08:24;4.65;;;1.90;;
22963;SDS011;11648;49.306;6.934;2023-05-07T11:11:04;2.53;;;1.50;;
22963;SDS011;11648;49.306;6.934;2023-05-07T11:13:46;4.10;;;1.60;;
22963;SDS011;11648;49.306;6.934;2023-05-07T11:16:33;3.03;;;1.52;;
22963;SDS011;11648;49.306;6.934;2023-05-07T11:19:17;3.92;;;1.48;;
22963;SDS011;11648;49.306;6.934;2023-05-07T11:21:48;3.30;;;1.70;;
22963;SDS011;11648;49.306;6.934;2023-05-07T11:24:38;3.17;;;1.67;;
22963;SDS011;11648;49.306;6.934;2023-05-07T11:27:07;4.05;;;1.65;;
22963;SDS011;11648;49.306;6.934;2023-05-07T11:29:35;2.55;;;1.65;;
22963;SDS011;11648;49.306;6.934;2023-05-07T11:32:06;3.28;;;1.70;;
22963;SDS011;11648;49.306;6.934;2023-05-07T11:34:39;3.95;;;1.75;;
22963;SDS011;11648;49.306;6.934;2023-05-07T11:37:07;4.22;;;1.60;;
22963;SDS011;11648;49.306;6.934;2023-05-07T11:39:47;2.67;;;1.50;;
22963;SDS011;11648;49.306;6.934;2023-05-07T11:42:31;2.72;;;1.70;;
22963;SDS011;11648;49.306;6.934;2023-05-07T11:45:00;2.95;;;1.70;;
22963;SDS011;11648;49.306;6.934;2023-05-07T11:47:29;2.53;;;1.65;;
22963;SDS011;11648;49.306;6.934;2023-05-07T11:49:57;3.70;;;1.60;;
22963;SDS011;11648;49.306;6.934;2023-05-07T11:52:30;4.32;;;1.52;;
22963;SDS011;11648;49.306;6.934;2023-05-07T11:54:57;1.63;;;1.25;;
22963;SDS011;11648;49.306;6.934;2023-05-07T11:57:26;4.80;;;1.48;;
22963;SDS011;11648;49.306;6.934;2023-05-07T11:59:54;2.67;;;1.42;;
22963;SDS011;11648;49.306;6.934;2023-05-07T12:02:21;2.85;;;1.80;;
22963;SDS011;11648;49.306;6.934;2023-05-07T12:04:48;2.38;;;1.50;;
22963;SDS011;11648;49.306;6.934;2023-05-07T12:07:15;3.17;;;1.50;;
22963;SDS011;11648;49.306;6.934;2023-05-07T12:09:42;2.38;;;1.60;;
22963;SDS011;11648;49.306;6.934;2023-05-07T12:12:10;3.95;;;1.67;;
22963;SDS011;11648;49.306;6.934;2023-05-07T12:14:37;3.30;;;1.67;;
22963;SDS011;11648;49.306;6.934;2023-05-07T12:17:05;3.40;;;1.63;;
22963;SDS011;11648;49.306;6.934;2023-05-07T12:19:34;3.60;;;1.67;;
22963;SDS011;11648;49.306;6.934;2023-05-07T12:22:05;5.03;;;1.67;;
22963;SDS011;11648;49.306;6.934;2023-05-07T12:27:13;3.10;;;1.70;;
22963;SDS011;11648;49.306;6.934;2023-05-07T12:29:44;2.13;;;1.70;;
22963;SDS011;11648;49.306;6.934;2023-05-07T12:32:18;3.53;;;1.90;;
22963;SDS011;11648;49.306;6.934;2023-05-07T12:34:49;3.00;;;2.00;;
22963;SDS011;11648;49.306;6.934;2023-05-07T12:37:22;3.17;;;1.80;;
22963;SDS011;11648;49.306;6.934;2023-05-07T12:40:03;2.30;;;1.50;;
22963;SDS011;11648;49.306;6.934;2023-05-07T12:42:36;4.27;;;1.70;;
22963;SDS011;11648;49.306;6.934;2023-05-07T12:45:14;3.43;;;1.70;;
22963;SDS011;11648;49.306;6.934;2023-05-07T12:47:46;3.53;;;1.73;;
22963;SDS011;11648;49.306;6.934;2023-05-07T12:50:14;3.63;;;1.80;;
22963;SDS011;11648;49.306;6.934;2023-05-07T12:52:45;4.70;;;2.37;;
22963;SDS011;11648;49.306;6.934;2023-05-07T12:55:14;3.23;;;2.00;;
22963;SDS011;11648;49.306;6.934;2023-05-07T12:57:43;4.30;;;2.20;;
22963;SDS011;11648;49.306;6.934;2023-05-07T13:00:14;4.53;;;2.10;;
22963;SDS011;11648;49.306;6.934;2023-05-07T13:02:42;2.87;;;1.80;;
22963;SDS011;11648;49.306;6.934;2023-05-07T13:05:12;4.43;;;2.20;;
22963;SDS011;11648;49.306;6.934;2023-05-07T13:07:40;3.67;;;2.37;;
22963;SDS011;11648;49.306;6.934;2023-05-07T13:10:07;5.13;;;2.10;;
22963;SDS011;11648;49.306;6.934;2023-05-07T13:12:34;3.40;;;2.00;;
22963;SDS011;11648;49.306;6.934;2023-05-07T13:15:01;3.33;;;2.10;;
22963;SDS011;11648;49.306;6.934;2023-05-07T13:17:28;4.67;;;2.17;;
22963;SDS011;11648;49.306;6.934;2023-05-07T13:19:55;4.30;;;1.60;;
22963;SDS011;11648;49.306;6.934;2023-05-07T13:22:21;3.37;;;1.97;;
22963;SDS011;11648;49.306;6.934;2023-05-07T13:24:48;2.90;;;1.73;;
22963;SDS011;11648;49.306;6.934;2023-05-07T13:27:15;5.67;;;2.70;;
22963;SDS011;11648;49.306;6.934;2023-05-07T13:29:41;5.10;;;2.50;;
22963;SDS011;11648;49.306;6.934;2023-05-07T13:32:08;6.43;;;2.70;;
22963;SDS011;11648;49.306;6.934;2023-05-07T13:34:35;4.17;;;2.37;;
22963;SDS011;11648;49.306;6.934;2023-05-07T13:37:02;3.57;;;2.47;;
22963;SDS011;11648;49.306;6.934;2023-05-07T13:39:28;3.77;;;2.80;;
22963;SDS011;11648;49.306;6.934;2023-05-07T13:41:55;3.97;;;2.50;;
22963;SDS011;11648;49.306;6.934;2023-05-07T13:44:22;3.73;;;2.30;;
22963;SDS011;11648;49.306;6.934;2023-05-07T13:46:49;6.27;;;2.97;;
22963;SDS011;11648;49.306;6.934;2023-05-07T13:49:15;6.80;;;2.70;;
22963;SDS011;11648;49.306;6.934;2023-05-07T13:51:42;4.90;;;2.47;;
22963;SDS011;11648;49.306;6.934;2023-05-07T13:54:09;5.67;;;2.67;;
22963;SDS011;11648;49.306;6.934;2023-05-07T13:56:35;4.83;;;3.07;;
22963;SDS011;11648;49.306;6.934;2023-05-07T13:59:02;4.67;;;2.93;;
22963;SDS011;11648;49.306;6.934;2023-05-07T14:01:29;4.97;;;2.83;;
22963;SDS011;11648;49.306;6.934;2023-05-07T14:03:56;5.60;;;2.90;;
22963;SDS011;11648;49.306;6.934;2023-05-07T14:06:24;4.70;;;2.93;;
22963;SDS011;11648;49.306;6.934;2023-05-07T14:08:51;4.13;;;3.00;;
22963;SDS011;11648;49.306;6.934;2023-05-07T14:11:18;4.83;;;2.83;;
22963;SDS011;11648;49.306;6.934;2023-05-07T14:13:45;5.50;;;2.90;;
22963;SDS011;11648;49.306;6.934;2023-05-07T14:16:11;5.77;;;2.80;;
22963;SDS011;11648;49.306;6.934;2023-05-07T14:18:38;4.87;;;3.07;;
22963;SDS011;11648;49.306;6.934;2023-05-07T14:21:05;4.30;;;3.10;;
22963;SDS011;11648;49.306;6.934;2023-05-07T14:23:36;4.37;;;3.13;;
22963;SDS011;11648;49.306;6.934;2023-05-07T14:26:02;4.33;;;2.93;;
22963;SDS011;11648;49.306;6.934;2023-05-07T14:28:29;6.20;;;3.37;;
22963;SDS011;11648;49.306;6.934;2023-05-07T14:30:56;4.87;;;3.03;;
22963;SDS011;11648;49.306;6.934;2023-05-07T14:33:23;4.43;;;2.73;;
22963;SDS011;11648;49.306;6.934;2023-05-07T14:35:50;5.10;;;3.00;;
22963;SDS011;11648;49.306;6.934;2023-05-07T14:38:16;3.23;;;2.27;;
22963;SDS011;11648;49.306;6.934;2023-05-07T14:40:44;4.30;;;2.77;;
22963;SDS011;11648;49.306;6.934;2023-05-07T14:43:10;4.00;;;2.53;;
22963;SDS011;11648;49.306;6.934;2023-05-07T14:45:37;4.73;;;2.60;;
22963;SDS011;11648;49.306;6.934;2023-05-07T14:48:04;4.97;;;2.50;;
22963;SDS011;11648;49.306;6.934;2023-05-07T14:50:31;3.93;;;2.10;;
22963;SDS011;11648;49.306;6.934;2023-05-07T14:52:58;3.87;;;2.07;;
22963;SDS011;11648;49.306;6.934;2023-05-07T14:55:25;5.20;;;2.37;;
22963;SDS011;11648;49.306;6.934;2023-05-07T14:57:51;4.27;;;2.00;;
22963;SDS011;11648;49.306;6.934;2023-05-07T15:00:18;4.10;;;2.00;;
22963;SDS011;11648;49.306;6.934;2023-05-07T15:02:45;3.13;;;2.03;;
22963;SDS011;11648;49.306;6.934;2023-05-07T15:05:12;3.80;;;2.03;;
22963;SDS011;11648;49.306;6.934;2023-05-07T15:07:40;3.70;;;2.10;;
22963;SDS011;11648;49.306;6.934;2023-05-07T15:10:07;3.87;;;1.97;;
22963;SDS011;11648;49.306;6.934;2023-05-07T15:12:34;6.17;;;2.20;;
22963;SDS011;11648;49.306;6.934;2023-05-07T15:15:02;3.87;;;1.90;;
22963;SDS011;11648;49.306;6.934;2023-05-07T15:17:29;5.40;;;2.60;;